Terminal Aerodrome Forecast
Issued by NWS Greer, SC

Home | Current Version | Previous Version | Text Only | Print | Product List | Glossary On
Versions: 1 2 3 4 5 6 7 8 9 10 11 12 13 14 15 16 17 18 19 20 21
000
FTUS42 KGSP 281740
TAFGSP
TAF
KGSP 281740Z 2818/2918 21012G17KT P6SM VCSH SCT040
     FM282300 22006KT P6SM FEW050
     FM290700 VRB02KT P6SM FEW250
     FM291500 22008KT P6SM SCT070=

USA.gov is the U.S. government's official web portal to all federal, state and local government web resources and services.